createdAt,value
2019-05-13T00:00:18.588Z,2.300000
2019-05-13T00:02:48.822Z,2.300000
2019-05-13T00:05:19.215Z,2.800000
2019-05-13T00:07:49.624Z,2.800000
2019-05-13T00:10:19.955Z,1.800000
2019-05-13T00:12:50.259Z,1.800000
2019-05-13T00:15:20.591Z,2.700000
2019-05-13T00:17:50.975Z,2.700000
2019-05-13T00:20:21.393Z,3.300000
2019-05-13T00:22:53.811Z,3.300000
2019-05-13T00:25:24.313Z,3.200000
2019-05-13T00:27:54.823Z,3.200000
2019-05-13T00:30:25.220Z,2.100000
2019-05-13T00:32:55.529Z,2.100000
2019-05-13T00:35:25.840Z,2.200000
2019-05-13T00:37:56.159Z,2.200000
2019-05-13T00:40:26.546Z,3.100000
2019-05-13T00:42:56.955Z,3.100000
2019-05-13T00:45:27.253Z,2.000000
2019-05-13T00:47:57.504Z,2.000000
2019-05-13T00:50:28.065Z,2.000000
2019-05-13T00:52:58.535Z,2.000000
2019-05-13T00:55:28.875Z,1.900000
2019-05-13T00:57:59.267Z,1.900000
2019-05-13T01:00:29.579Z,2.900000
2019-05-13T01:02:59.968Z,2.900000
2019-05-13T01:05:30.350Z,3.300000
2019-05-13T01:08:00.658Z,3.300000
2019-05-13T01:10:31.039Z,4.000000
2019-05-13T01:13:01.517Z,4.000000
2019-05-13T01:15:34.014Z,2.200000
2019-05-13T01:18:04.821Z,2.200000
2019-05-13T01:20:35.374Z,2.200000
2019-05-13T01:23:05.638Z,3.500000
2019-05-13T01:25:36.158Z,3.500000
2019-05-13T01:28:06.676Z,3.300000
2019-05-13T01:30:36.962Z,3.300000
2019-05-13T01:33:07.278Z,2.800000
2019-05-13T01:35:37.585Z,2.800000
2019-05-13T01:38:07.880Z,2.100000
2019-05-13T01:40:38.168Z,2.100000
2019-05-13T01:43:08.560Z,3.700000
2019-05-13T01:45:38.854Z,3.700000
2019-05-13T01:48:09.184Z,2.800000
2019-05-13T01:50:39.546Z,2.800000
2019-05-13T01:53:09.851Z,1.600000
2019-05-13T01:55:40.234Z,1.600000
2019-05-13T01:58:10.607Z,4.000000
2019-05-13T02:00:44.008Z,4.000000
2019-05-13T02:03:14.828Z,3.500000
2019-05-13T02:05:50.159Z,3.500000
2019-05-13T02:08:20.492Z,2.900000
2019-05-13T02:10:50.789Z,2.900000
2019-05-13T02:13:26.222Z,1.900000
2019-05-13T02:15:56.597Z,1.900000
2019-05-13T02:18:27.039Z,1.600000
2019-05-13T02:20:57.363Z,1.600000
2019-05-13T02:23:27.652Z,3.200000
2019-05-13T02:25:57.929Z,3.200000
2019-05-13T02:28:28.321Z,2.500000
2019-05-13T02:31:03.756Z,2.500000
2019-05-13T02:33:42.171Z,1.700000
2019-05-13T02:36:13.449Z,1.700000
2019-05-13T02:38:44.145Z,2.300000
2019-05-13T02:41:14.535Z,2.300000
2019-05-13T02:43:45.542Z,3.300000
2019-05-13T02:46:16.011Z,3.300000
2019-05-13T02:48:46.514Z,1.700000
2019-05-13T02:51:16.910Z,1.700000
2019-05-13T02:53:47.192Z,2.600000
2019-05-13T02:56:17.478Z,2.600000
2019-05-13T02:58:47.876Z,3.700000
2019-05-13T03:01:18.275Z,3.700000
2019-05-13T03:03:48.574Z,2.900000
2019-05-13T03:06:22.142Z,2.900000
2019-05-13T03:08:54.471Z,2.800000
2019-05-13T03:11:25.015Z,2.800000
2019-05-13T03:13:55.437Z,4.300000
2019-05-13T03:16:25.931Z,4.300000
2019-05-13T03:18:56.329Z,2.900000
2019-05-13T03:21:26.645Z,2.900000
2019-05-13T03:23:57.021Z,2.700000
2019-05-13T03:26:27.404Z,2.700000
2019-05-13T03:28:57.781Z,2.800000
2019-05-13T03:31:28.297Z,2.800000
2019-05-13T03:33:58.650Z,2.200000
2019-05-13T03:36:29.071Z,2.200000
2019-05-13T03:39:06.008Z,2.100000
2019-05-13T03:41:42.272Z,2.100000
2019-05-13T03:44:13.688Z,3.200000
2019-05-13T03:46:44.150Z,3.200000
2019-05-13T03:49:14.462Z,2.700000
2019-05-13T03:51:44.752Z,2.700000
2019-05-13T03:54:15.106Z,1.900000
2019-05-13T03:56:45.714Z,1.900000
2019-05-13T03:59:16.086Z,2.100000
2019-05-13T04:01:46.474Z,2.100000
2019-05-13T04:04:16.788Z,2.000000
2019-05-13T04:06:47.258Z,2.000000
2019-05-13T04:09:29.678Z,2.200000
2019-05-13T04:12:03.120Z,2.200000
2019-05-13T04:14:34.005Z,4.500000
2019-05-13T04:17:04.426Z,4.500000
2019-05-13T04:19:34.849Z,3.500000
2019-05-13T04:22:05.269Z,3.500000
2019-05-13T04:24:35.592Z,3.700000
2019-05-13T04:27:06.069Z,3.700000
2019-05-13T04:29:36.370Z,2.400000
2019-05-13T04:32:06.703Z,2.400000
2019-05-13T04:34:37.089Z,3.200000
2019-05-13T04:37:07.446Z,3.200000
2019-05-13T04:39:47.613Z,3.400000
2019-05-13T04:42:23.131Z,2.800000
2019-05-13T04:44:53.657Z,2.800000
2019-05-13T04:47:24.132Z,1.700000
2019-05-13T04:49:54.482Z,1.700000
2019-05-13T04:52:24.748Z,3.800000
2019-05-13T04:54:55.406Z,3.800000
2019-05-13T04:57:25.783Z,2.900000
2019-05-13T04:59:56.281Z,2.900000
2019-05-13T05:02:36.734Z,3.200000
2019-05-13T05:05:08.785Z,3.200000
2019-05-13T05:07:41.836Z,4.700000
2019-05-13T05:10:23.420Z,4.700000
2019-05-13T05:13:02.325Z,2.900000
2019-05-13T05:15:32.987Z,2.900000
2019-05-13T05:18:03.422Z,2.000000
2019-05-13T05:20:33.633Z,2.000000
2019-05-13T05:23:04.033Z,2.100000
2019-05-13T05:25:34.337Z,2.100000
2019-05-13T05:28:04.755Z,2.900000
2019-05-13T05:30:35.238Z,2.900000
2019-05-13T05:33:05.773Z,1.900000
2019-05-13T05:35:36.342Z,1.900000
2019-05-13T05:38:06.665Z,2.800000
2019-05-13T05:40:37.077Z,2.800000
2019-05-13T05:43:07.363Z,4.600000
2019-05-13T05:45:37.664Z,4.600000
2019-05-13T05:48:07.972Z,4.900000
2019-05-13T05:50:38.306Z,4.900000
2019-05-13T05:53:11.027Z,4.500000
2019-05-13T05:55:41.457Z,4.500000
2019-05-13T05:58:12.115Z,3.900000
2019-05-13T06:00:42.468Z,3.900000
2019-05-13T06:03:13.801Z,2.300000
2019-05-13T06:05:44.353Z,2.300000
2019-05-13T06:08:17.648Z,2.900000
2019-05-13T06:10:52.842Z,2.900000
2019-05-13T06:13:23.940Z,3.100000
2019-05-13T06:15:54.215Z,3.100000
2019-05-13T06:18:24.436Z,6.100000
2019-05-13T06:20:54.751Z,6.100000
2019-05-13T06:23:25.086Z,5.400000
2019-05-13T06:25:55.516Z,5.400000
2019-05-13T06:28:25.844Z,5.100000
2019-05-13T06:30:56.104Z,5.100000
2019-05-13T06:33:26.490Z,3.400000
2019-05-13T06:35:56.795Z,3.400000
2019-05-13T06:38:27.350Z,4.000000
2019-05-13T06:41:02.770Z,4.000000
2019-05-13T06:43:33.796Z,3.000000
2019-05-13T06:46:04.286Z,3.000000
2019-05-13T06:48:34.857Z,3.700000
2019-05-13T06:51:05.281Z,3.700000
2019-05-13T06:53:35.683Z,3.400000
2019-05-13T06:56:06.027Z,3.400000
2019-05-13T06:58:36.459Z,3.200000
2019-05-13T07:01:06.896Z,3.200000
2019-05-13T07:03:37.253Z,4.200000
2019-05-13T07:06:07.823Z,4.200000
2019-05-13T07:08:38.313Z,3.300000
2019-05-13T07:11:18.665Z,3.300000
2019-05-13T07:13:52.111Z,3.200000
2019-05-13T07:16:22.505Z,3.200000
2019-05-13T07:18:52.828Z,3.100000
2019-05-13T07:21:23.203Z,3.100000
2019-05-13T07:23:54.960Z,3.300000
2019-05-13T07:26:25.354Z,3.300000
2019-05-13T07:28:56.068Z,1.900000
2019-05-13T07:31:26.518Z,1.900000
2019-05-13T07:33:56.986Z,2.900000
2019-05-13T07:36:27.313Z,2.900000
2019-05-13T07:38:57.724Z,2.500000
2019-05-13T07:41:38.701Z,2.500000
2019-05-13T07:44:11.875Z,3.700000
2019-05-13T07:46:42.891Z,2.800000
2019-05-13T07:49:13.233Z,2.800000
2019-05-13T07:51:43.524Z,2.600000
2019-05-13T07:54:14.114Z,2.600000
2019-05-13T07:56:44.427Z,2.600000
2019-05-13T07:59:14.739Z,2.600000
2019-05-13T08:01:45.057Z,4.900000
2019-05-13T08:04:22.307Z,4.900000
2019-05-13T08:06:56.120Z,2.500000
2019-05-13T08:09:26.620Z,2.500000
2019-05-13T08:12:06.367Z,3.100000
2019-05-13T08:14:43.308Z,3.100000
2019-05-13T08:17:13.960Z,3.500000
2019-05-13T08:19:44.401Z,3.500000
2019-05-13T08:22:14.693Z,2.300000
2019-05-13T08:24:45.153Z,2.300000
2019-05-13T08:27:15.490Z,1.100000
2019-05-13T08:29:45.805Z,1.100000
2019-05-13T08:32:16.064Z,1.000000
2019-05-13T08:34:46.372Z,1.000000
2019-05-13T08:37:16.716Z,2.800000
2019-05-13T08:39:47.288Z,2.800000
2019-05-13T08:42:20.062Z,1.900000
2019-05-13T08:44:53.409Z,1.900000
2019-05-13T08:47:23.682Z,1.400000
2019-05-13T08:49:53.965Z,1.400000
2019-05-13T08:52:24.242Z,2.900000
2019-05-13T08:54:54.626Z,2.900000
2019-05-13T08:57:24.924Z,2.100000
2019-05-13T08:59:55.413Z,2.100000
2019-05-13T09:02:25.710Z,1.300000
2019-05-13T09:04:56.108Z,1.300000
2019-05-13T09:07:26.503Z,1.400000
2019-05-13T09:09:56.908Z,1.400000
2019-05-13T09:12:32.041Z,1.500000
2019-05-13T09:15:05.588Z,1.500000
2019-05-13T09:17:35.957Z,1.600000
2019-05-13T09:20:06.286Z,1.600000
2019-05-13T09:22:36.644Z,1.800000
2019-05-13T09:25:07.007Z,1.800000
2019-05-13T09:27:37.459Z,1.400000
2019-05-13T09:30:07.916Z,1.400000
2019-05-13T09:32:38.265Z,1.800000
2019-05-13T09:35:11.797Z,1.800000
2019-05-13T09:37:42.498Z,3.200000
2019-05-13T09:40:12.909Z,3.200000
2019-05-13T09:42:49.140Z,1.200000
2019-05-13T09:45:22.106Z,1.200000
2019-05-13T09:47:52.631Z,2.500000
2019-05-13T09:50:31.421Z,2.500000
2019-05-13T09:53:03.785Z,1.400000
2019-05-13T09:55:34.216Z,1.400000
2019-05-13T09:58:04.609Z,2.200000
2019-05-13T10:00:35.039Z,2.200000
2019-05-13T10:03:05.368Z,1.300000
2019-05-13T10:05:36.802Z,1.300000
2019-05-13T10:08:07.185Z,3.000000
2019-05-13T10:10:37.436Z,3.000000
2019-05-13T10:13:12.372Z,3.500000
2019-05-13T10:15:48.726Z,3.500000
2019-05-13T10:18:21.630Z,1.600000
2019-05-13T10:20:58.240Z,1.600000
2019-05-13T10:23:33.754Z,1.200000
2019-05-13T10:26:04.103Z,1.200000
2019-05-13T10:28:34.463Z,2.100000
2019-05-13T10:31:11.998Z,2.100000
2019-05-13T10:33:42.476Z,2.000000
2019-05-13T10:36:12.851Z,2.000000
2019-05-13T10:38:43.206Z,2.700000
2019-05-13T10:41:13.473Z,2.700000
2019-05-13T10:43:44.486Z,1.800000
2019-05-13T10:46:15.180Z,1.800000
2019-05-13T10:48:45.527Z,2.400000
2019-05-13T10:51:22.119Z,2.400000
2019-05-13T10:53:58.675Z,1.500000
2019-05-13T10:56:32.798Z,1.500000
2019-05-13T10:59:03.435Z,1.000000
2019-05-13T11:01:33.844Z,1.000000
2019-05-13T11:04:04.276Z,1.400000
2019-05-13T11:06:34.693Z,1.400000
2019-05-13T11:09:05.209Z,3.100000
2019-05-13T11:11:35.648Z,3.100000
2019-05-13T11:14:10.988Z,1.900000
2019-05-13T11:16:43.158Z,1.300000
2019-05-13T11:19:13.541Z,1.300000
2019-05-13T11:21:44.531Z,1.100000
2019-05-13T11:24:15.026Z,1.100000
2019-05-13T11:26:45.327Z,2.000000
2019-05-13T11:29:15.729Z,2.000000
2019-05-13T11:31:46.019Z,1.600000
2019-05-13T11:34:16.415Z,1.600000
2019-05-13T11:36:46.815Z,1.400000
2019-05-13T11:39:17.218Z,1.400000
2019-05-13T11:41:47.607Z,2.900000
2019-05-13T11:44:18.009Z,2.900000
2019-05-13T11:46:48.409Z,4.500000
2019-05-13T11:49:18.801Z,4.500000
2019-05-13T11:51:51.719Z,2.400000
2019-05-13T11:54:22.556Z,2.400000
2019-05-13T11:57:01.497Z,0.700000
2019-05-13T11:59:36.488Z,0.700000
2019-05-13T12:02:07.165Z,1.000000
2019-05-13T12:04:37.588Z,1.000000
2019-05-13T12:07:07.908Z,1.500000
2019-05-13T12:09:38.222Z,1.500000
2019-05-13T12:12:08.634Z,0.900000
2019-05-13T12:14:48.533Z,0.900000
2019-05-13T12:17:47.163Z,1.700000
2019-05-13T12:20:17.609Z,1.700000
2019-05-13T12:22:53.223Z,1.500000
2019-05-13T12:25:23.531Z,1.500000
2019-05-13T12:27:53.847Z,1.700000
2019-05-13T12:30:24.291Z,1.700000
2019-05-13T12:32:54.802Z,1.000000
2019-05-13T12:35:25.385Z,1.000000
2019-05-13T12:37:55.853Z,1.800000
2019-05-13T12:40:26.198Z,1.800000
2019-05-13T12:42:56.542Z,2.700000
2019-05-13T12:45:26.904Z,2.700000
2019-05-13T12:47:57.299Z,2.700000
2019-05-13T12:50:27.699Z,2.700000
2019-05-13T12:52:58.288Z,2.600000
2019-05-13T12:55:28.750Z,2.600000
2019-05-13T12:58:02.480Z,1.400000
2019-05-13T13:00:33.189Z,1.400000
2019-05-13T13:03:03.821Z,1.200000
2019-05-13T13:05:36.942Z,1.200000
2019-05-13T13:08:19.259Z,1.500000
2019-05-13T13:10:59.635Z,1.500000
2019-05-13T13:13:56.266Z,4.400000
2019-05-13T13:16:34.376Z,4.400000
2019-05-13T13:19:06.374Z,3.500000
2019-05-13T13:21:41.721Z,2.000000
2019-05-13T13:24:12.620Z,2.000000
2019-05-13T13:26:43.162Z,1.900000
2019-05-13T13:29:13.420Z,1.900000
2019-05-13T13:31:44.561Z,2.000000
2019-05-13T13:34:18.645Z,2.000000
2019-05-13T13:36:50.133Z,1.600000
2019-05-13T13:39:25.512Z,1.600000
2019-05-13T13:41:56.065Z,0.800000
2019-05-13T13:44:26.497Z,0.800000
2019-05-13T13:46:57.022Z,1.600000
2019-05-13T13:49:27.410Z,1.600000
2019-05-13T13:51:58.085Z,2.300000
2019-05-13T13:54:28.383Z,2.300000
2019-05-13T13:56:58.820Z,2.300000
2019-05-13T13:59:35.588Z,2.300000
2019-05-13T14:02:06.521Z,2.100000
2019-05-13T14:04:37.392Z,2.100000
2019-05-13T14:07:25.423Z,2.100000
2019-05-13T14:10:04.172Z,2.100000
2019-05-13T14:12:37.539Z,3.300000
2019-05-13T14:15:08.168Z,3.300000
2019-05-13T14:17:38.535Z,1.500000
2019-05-13T14:20:09.014Z,1.500000
2019-05-13T14:22:41.903Z,2.100000
2019-05-13T14:25:12.535Z,2.100000
2019-05-13T14:27:42.936Z,2.000000
2019-05-13T14:30:13.390Z,2.000000
2019-05-13T14:32:44.223Z,1.200000
2019-05-13T14:35:14.746Z,1.200000
2019-05-13T14:37:45.129Z,2.000000
2019-05-13T14:40:15.742Z,2.000000
2019-05-13T14:42:46.615Z,1.200000
2019-05-13T14:45:20.453Z,1.200000
2019-05-13T14:47:53.275Z,1.800000
2019-05-13T14:50:23.536Z,1.800000
2019-05-13T14:52:54.747Z,0.900000
2019-05-13T14:55:25.108Z,0.900000
2019-05-13T14:57:55.595Z,1.500000
2019-05-13T15:00:26.063Z,1.500000
2019-05-13T15:02:56.471Z,1.400000
2019-05-13T15:05:27.113Z,1.400000
2019-05-13T15:07:57.528Z,1.300000
2019-05-13T15:10:27.979Z,1.300000
2019-05-13T15:12:58.576Z,1.500000
2019-05-13T15:15:28.982Z,1.500000
2019-05-13T15:18:01.426Z,1.300000
2019-05-13T15:20:33.260Z,1.300000
2019-05-13T15:23:04.206Z,1.600000
2019-05-13T15:25:34.778Z,1.600000
2019-05-13T15:28:06.787Z,2.900000
2019-05-13T15:30:37.299Z,2.900000
2019-05-13T15:33:08.144Z,0.700000
2019-05-13T15:35:41.679Z,0.700000
2019-05-13T15:38:12.754Z,1.500000
2019-05-13T15:40:43.011Z,1.500000
2019-05-13T15:43:13.420Z,1.400000
2019-05-13T15:45:43.834Z,1.400000
2019-05-13T15:48:14.252Z,1.700000
2019-05-13T15:50:44.816Z,1.700000
2019-05-13T15:53:15.139Z,1.000000
2019-05-13T15:55:46.583Z,1.000000
2019-05-13T15:58:17.092Z,2.400000
2019-05-13T16:00:47.606Z,2.400000
2019-05-13T16:03:18.131Z,1.300000
2019-05-13T16:05:48.497Z,1.300000
2019-05-13T16:08:18.815Z,1.900000
2019-05-13T16:10:49.455Z,1.900000
2019-05-13T16:13:22.069Z,1.100000
2019-05-13T16:15:52.537Z,1.100000
2019-05-13T16:18:23.293Z,1.200000
2019-05-13T16:20:54.632Z,1.200000
2019-05-13T16:23:26.992Z,1.200000
2019-05-13T16:25:57.359Z,1.200000
2019-05-13T16:28:27.782Z,0.800000
2019-05-13T16:30:58.229Z,0.800000
2019-05-13T16:33:28.542Z,1.600000
2019-05-13T16:35:58.871Z,1.600000
2019-05-13T16:38:29.201Z,2.200000
2019-05-13T16:40:59.642Z,2.200000
2019-05-13T16:43:31.978Z,3.200000
2019-05-13T16:46:02.474Z,3.200000
2019-05-13T16:48:32.777Z,0.900000
2019-05-13T16:51:03.077Z,0.900000
2019-05-13T16:53:33.295Z,2.500000
2019-05-13T16:56:03.594Z,2.500000
2019-05-13T16:58:33.922Z,0.900000
2019-05-13T17:01:04.219Z,0.900000
2019-05-13T17:03:34.627Z,1.100000
2019-05-13T17:06:05.112Z,6.100000
2019-05-13T17:08:35.412Z,6.100000
2019-05-13T17:11:05.789Z,2.600000
2019-05-13T17:13:36.288Z,2.600000
2019-05-13T17:16:06.550Z,1.700000
2019-05-13T17:18:36.734Z,1.700000
2019-05-13T17:21:07.258Z,0.600000
2019-05-13T17:23:37.704Z,0.600000
2019-05-13T17:26:08.066Z,3.600000
2019-05-13T17:28:38.471Z,3.600000
2019-05-13T17:31:11.322Z,2.000000
2019-05-13T17:33:42.192Z,2.000000
2019-05-13T17:36:12.685Z,1.700000
2019-05-13T17:38:43.014Z,1.700000
2019-05-13T17:41:13.441Z,2.000000
2019-05-13T17:43:43.765Z,2.000000
2019-05-13T17:46:14.116Z,2.300000
2019-05-13T17:48:44.604Z,2.300000
2019-05-13T17:51:16.484Z,1.600000
2019-05-13T17:53:46.824Z,1.600000
2019-05-13T17:56:17.100Z,2.800000
2019-05-13T17:58:47.349Z,2.800000
2019-05-13T18:01:17.572Z,0.300000
2019-05-13T18:03:47.937Z,0.300000
2019-05-13T18:06:18.445Z,1.900000
2019-05-13T18:08:48.985Z,1.900000
2019-05-13T18:11:21.742Z,0.800000
2019-05-13T18:13:52.412Z,0.800000
2019-05-13T18:16:22.784Z,1.200000
2019-05-13T18:18:53.139Z,1.200000
2019-05-13T18:21:23.567Z,3.600000
2019-05-13T18:23:53.809Z,3.600000
2019-05-13T18:26:24.152Z,0.900000
2019-05-13T18:28:54.708Z,0.900000
2019-05-13T18:31:25.186Z,1.900000
2019-05-13T18:33:55.563Z,1.900000
2019-05-13T18:36:26.505Z,1.600000
2019-05-13T18:38:57.164Z,1.600000
2019-05-13T18:41:27.482Z,1.000000
2019-05-13T18:43:58.039Z,1.000000
2019-05-13T18:46:32.239Z,1.900000
2019-05-13T18:49:02.684Z,1.900000
2019-05-13T18:51:33.307Z,1.200000
2019-05-13T18:54:03.706Z,1.200000
2019-05-13T18:56:34.200Z,0.600000
2019-05-13T18:59:04.973Z,0.600000
2019-05-13T19:01:35.498Z,1.800000
2019-05-13T19:04:06.416Z,1.800000
2019-05-13T19:06:37.973Z,1.000000
2019-05-13T19:09:08.364Z,1.000000
2019-05-13T19:11:38.957Z,0.500000
2019-05-13T19:14:12.079Z,0.500000
2019-05-13T19:16:43.073Z,1.600000
2019-05-13T19:19:16.972Z,1.600000
2019-05-13T19:21:51.144Z,1.000000
2019-05-13T19:24:21.514Z,1.000000
2019-05-13T19:26:52.212Z,2.400000
2019-05-13T19:29:22.747Z,2.400000
2019-05-13T19:31:53.725Z,2.000000
2019-05-13T19:34:24.033Z,2.000000
2019-05-13T19:36:54.515Z,1.000000
2019-05-13T19:39:25.018Z,1.000000
2019-05-13T19:41:56.192Z,3.300000
2019-05-13T19:44:26.718Z,3.300000
2019-05-13T19:46:57.087Z,1.900000
2019-05-13T19:49:32.171Z,1.900000
2019-05-13T19:52:06.618Z,1.600000
2019-05-13T19:54:36.998Z,1.600000
2019-05-13T19:57:07.479Z,2.000000
2019-05-13T19:59:38.967Z,2.000000
2019-05-13T20:02:12.041Z,1.600000
2019-05-13T20:04:42.831Z,1.600000
2019-05-13T20:07:13.264Z,3.000000
2019-05-13T20:09:43.648Z,3.000000
2019-05-13T20:12:15.796Z,1.100000
2019-05-13T20:14:46.280Z,1.100000
2019-05-13T20:17:16.650Z,3.300000
2019-05-13T20:19:50.560Z,3.300000
2019-05-13T20:22:23.423Z,1.400000
2019-05-13T20:24:53.774Z,1.400000
2019-05-13T20:27:24.159Z,1.500000
2019-05-13T20:29:54.621Z,1.500000
2019-05-13T20:32:24.899Z,2.000000
2019-05-13T20:34:55.166Z,2.000000
2019-05-13T20:37:25.566Z,1.700000
2019-05-13T20:39:56.195Z,1.700000
2019-05-13T20:42:26.561Z,3.600000
2019-05-13T20:44:56.823Z,3.600000
2019-05-13T20:47:27.186Z,3.600000
2019-05-13T20:50:01.801Z,3.600000
2019-05-13T20:52:32.778Z,3.300000
2019-05-13T20:55:03.184Z,3.300000
2019-05-13T20:57:33.408Z,3.600000
2019-05-13T21:00:03.773Z,3.600000
2019-05-13T21:02:34.114Z,3.100000
2019-05-13T21:05:04.460Z,3.100000
2019-05-13T21:07:34.845Z,1.700000
2019-05-13T21:10:05.343Z,1.700000
2019-05-13T21:12:35.786Z,5.800000
2019-05-13T21:15:06.240Z,5.800000
2019-05-13T21:17:36.520Z,1.800000
2019-05-13T21:20:18.810Z,1.800000
2019-05-13T21:22:52.751Z,1.700000
2019-05-13T21:25:23.136Z,2.500000
2019-05-13T21:27:53.482Z,2.500000
2019-05-13T21:30:23.805Z,2.100000
2019-05-13T21:32:54.050Z,2.100000
2019-05-13T21:35:24.420Z,3.300000
2019-05-13T21:37:54.740Z,3.300000
2019-05-13T21:40:25.096Z,2.600000
2019-05-13T21:42:55.437Z,2.600000
2019-05-13T21:45:25.772Z,2.100000
2019-05-13T21:47:56.360Z,2.100000
2019-05-13T21:50:34.359Z,1.400000
2019-05-13T21:53:07.469Z,1.400000
2019-05-13T21:55:37.811Z,1.700000
2019-05-13T21:58:08.141Z,1.700000
2019-05-13T22:00:38.684Z,1.700000
2019-05-13T22:03:11.437Z,1.700000
2019-05-13T22:05:41.981Z,1.200000
2019-05-13T22:08:12.419Z,1.200000
2019-05-13T22:10:42.754Z,2.700000
2019-05-13T22:13:12.994Z,2.700000
2019-05-13T22:15:43.322Z,2.200000
2019-05-13T22:18:13.604Z,2.200000
2019-05-13T22:20:50.447Z,2.500000
2019-05-13T22:23:23.962Z,2.500000
2019-05-13T22:25:54.303Z,1.800000
2019-05-13T22:28:24.669Z,1.800000
2019-05-13T22:30:54.931Z,2.900000
2019-05-13T22:33:25.185Z,2.900000
2019-05-13T22:35:55.569Z,3.700000
2019-05-13T22:38:25.924Z,3.700000
2019-05-13T22:40:56.433Z,2.700000
2019-05-13T22:43:26.747Z,2.700000
2019-05-13T22:45:57.120Z,2.300000
2019-05-13T22:48:27.455Z,2.300000
2019-05-13T22:50:57.800Z,1.500000
2019-05-13T22:53:28.245Z,1.500000
2019-05-13T22:55:58.525Z,2.700000
2019-05-13T22:58:28.792Z,2.700000
2019-05-13T23:00:59.247Z,2.600000
2019-05-13T23:03:29.512Z,2.600000
2019-05-13T23:06:01.597Z,2.700000
2019-05-13T23:08:32.576Z,2.700000
2019-05-13T23:11:03.067Z,2.300000
2019-05-13T23:13:33.435Z,2.300000
2019-05-13T23:16:03.877Z,1.800000
2019-05-13T23:18:34.229Z,1.800000
2019-05-13T23:21:04.792Z,2.400000
2019-05-13T23:23:35.013Z,2.400000
2019-05-13T23:26:05.363Z,2.600000
2019-05-13T23:28:35.953Z,2.600000
2019-05-13T23:31:06.348Z,1.400000
2019-05-13T23:33:36.980Z,1.400000
2019-05-13T23:36:07.310Z,2.500000
2019-05-13T23:38:37.635Z,2.500000
2019-05-13T23:41:07.960Z,4.300000
2019-05-13T23:43:38.485Z,4.300000
2019-05-13T23:46:08.759Z,2.100000
2019-05-13T23:48:41.174Z,2.100000
2019-05-13T23:51:12.979Z,2.000000
2019-05-13T23:53:43.407Z,2.000000
2019-05-13T23:56:13.735Z,2.800000
2019-05-13T23:58:44.119Z,2.800000
